ADDS TAF Board (Experimental) INFO

IDs: Format: Expanded Condensed

Updated at: 1540 UTC 18 Sep 2014

KCLE - Cleveland/Hopkins In, OH, US

Issued at 1441 UTC 18 Sep 2014
Time1451Z18/16Z18/17Z18/18Z18/19Z18/20Z18/21Z18/22Z18/23Z19/00Z19/01Z19/02Z19/03Z19/04Z
TypeOBSPRVLPRVLPRVLPRVLPRVLPRVLPRVLPRVLPRVLPRVLPRVLPRVLPRVL
VIS10>6>6>6>6>6>6>6>6>6>6>6>6>6
CIG----------------------------
CoverSCTSCTSCTSCTSCTSCTSCTSCTSCTSCTSCTSCTSCTSCT
FltCat--VFRVFRVFRVFRVFRVFRVFRVFRVFRVFRVFRVFRVFR
WX----------------------------
WDir3010101010101010101010VRBVRBVRB
WSpd78888888888333
WGst----------------------------
R06/24
XWnd25555555555VRBVRBVRB
HWnd76666666666VRBVRBVRB
R10/28
XWnd68888888888VRBVRBVRB
HWnd31111111111VRBVRBVRB
Raw TAF
KCLE 181441Z 1815/1918 01008KT P6SM FEW030 SCT040
  FM190200 VRB03KT P6SM SCT250


Raw METAR
KCLE 181451Z 03007KT 10SM FEW035 SCT047 18/11 A3013 RMK AO2 SLP200 T01830111 53012

TAF Board Legend

Hazard VFR MVFR IFR LIFR
Visibility (sm) >5 3≤X≤5 1≤X<3 <1
Ceiling (100 ft) >30 10≤X≤30 5≤X<10 <5
Wind Speed (kt) <10 10≤X<20 20≤X<30 ≥30
Wind Gust (kt) <15 15≤X<25 25≤X<35 ≥35
Weather No Wx Reported VCTS,-TS,-FZRA TS,FZRA +TS,+FZRA


Page loaded:  15:40 UTC  |   08:40 AM Pacific  |   09:40 AM Mountain  |   10:40 AM Central  |   11:40 AM Eastern

 

ADVISORIES

FORECASTS

FORECASTS

OBSERVATIONS

USER TOOLS

ABOUT US